createdAt,value
2022-11-12T00:01:16.059Z,13.98
2022-11-12T00:04:01.596Z,16.95
2022-11-12T00:06:47.356Z,23.17
2022-11-12T00:09:33.348Z,28.92
2022-11-12T00:12:19.000Z,26.27
2022-11-12T00:15:05.146Z,20.35
2022-11-12T00:17:50.809Z,18.25
2022-11-12T00:20:36.759Z,16.60
2022-11-12T00:23:25.382Z,17.90
2022-11-12T00:26:10.996Z,22.35
2022-11-12T00:28:56.530Z,19.42
2022-11-12T00:31:42.297Z,23.48
2022-11-12T00:34:28.071Z,18.77
2022-11-12T00:37:14.019Z,18.48
2022-11-12T00:39:59.506Z,17.65
2022-11-12T00:42:45.219Z,19.85
2022-11-12T00:45:30.973Z,20.02
2022-11-12T00:48:18.113Z,18.02
2022-11-12T00:51:05.844Z,16.35
2022-11-12T00:53:51.459Z,24.38
2022-11-12T00:56:37.365Z,22.83
2022-11-12T00:59:23.199Z,17.98
2022-11-12T01:02:09.134Z,18.27
2022-11-12T01:04:55.109Z,18.13
2022-11-12T01:07:41.459Z,16.88
2022-11-12T01:10:27.071Z,16.33
2022-11-12T01:13:12.890Z,20.63
2022-11-12T01:15:58.492Z,18.35
2022-11-12T01:18:44.604Z,16.48
2022-11-12T01:21:32.709Z,17.08
2022-11-12T01:24:17.979Z,19.35
2022-11-12T01:27:03.704Z,18.98
2022-11-12T01:29:49.362Z,20.42
2022-11-12T01:32:37.098Z,17.48
2022-11-12T01:35:22.783Z,19.02
2022-11-12T01:38:09.552Z,17.55
2022-11-12T01:40:55.040Z,16.60
2022-11-12T01:43:40.787Z,16.23
2022-11-12T01:46:30.051Z,15.75
2022-11-12T01:49:24.297Z,15.15
2022-11-12T01:52:18.238Z,14.35
2022-11-12T01:55:09.818Z,16.95
2022-11-12T01:58:10.631Z,15.25
2022-11-12T02:00:57.418Z,14.77
2022-11-12T02:03:42.969Z,14.98
2022-11-12T02:06:29.190Z,16.42
2022-11-12T02:09:14.955Z,16.25
2022-11-12T02:12:01.113Z,16.20
2022-11-12T02:14:46.576Z,15.82
2022-11-12T02:17:33.060Z,15.02
2022-11-12T02:20:19.087Z,15.75
2022-11-12T02:23:06.897Z,15.25
2022-11-12T02:25:52.452Z,15.20
2022-11-12T02:28:38.491Z,16.65
2022-11-12T02:31:24.279Z,17.70
2022-11-12T02:34:09.848Z,17.60
2022-11-12T02:36:55.403Z,16.38
2022-11-12T02:39:40.964Z,17.75
2022-11-12T02:42:26.461Z,15.95
2022-11-12T02:45:12.331Z,15.45
2022-11-12T02:47:57.704Z,16.38
2022-11-12T02:50:43.465Z,16.63
2022-11-12T02:53:29.064Z,17.10
2022-11-12T02:56:14.664Z,15.50
2022-11-12T02:59:00.221Z,17.13
2022-11-12T03:01:46.003Z,19.33
2022-11-12T03:07:17.393Z,15.95
2022-11-12T03:10:03.567Z,15.20
2022-11-12T03:12:49.453Z,16.45
2022-11-12T03:15:35.154Z,16.40
2022-11-12T03:18:20.730Z,20.65
2022-11-12T03:21:06.731Z,19.23
2022-11-12T03:23:52.415Z,18.88
2022-11-12T03:26:38.109Z,18.10
2022-11-12T03:29:23.844Z,16.75
2022-11-12T03:32:09.440Z,16.65
2022-11-12T03:34:55.691Z,16.67
2022-11-12T03:37:41.219Z,15.68
2022-11-12T03:40:27.487Z,16.45
2022-11-12T03:43:12.940Z,17.30
2022-11-12T03:45:58.604Z,16.95
2022-11-12T03:48:44.192Z,16.15
2022-11-12T03:51:29.953Z,17.35
2022-11-12T03:54:15.522Z,17.98
2022-11-12T03:57:01.234Z,18.25
2022-11-12T03:59:46.831Z,19.33
2022-11-12T04:02:32.708Z,17.67
2022-11-12T04:05:37.211Z,15.95
2022-11-12T04:08:37.098Z,16.27
2022-11-12T04:11:22.678Z,14.18
2022-11-12T04:14:08.366Z,14.43
2022-11-12T04:17:12.735Z,16.05
2022-11-12T04:20:17.187Z,15.60
2022-11-12T04:23:05.838Z,15.35
2022-11-12T04:26:10.158Z,14.98
2022-11-12T04:29:14.477Z,14.50
2022-11-12T04:32:00.133Z,14.88
2022-11-12T04:34:45.979Z,15.40
2022-11-12T04:37:44.461Z,14.82
2022-11-12T04:40:49.776Z,16.38
2022-11-12T04:43:53.815Z,14.57
2022-11-12T04:46:39.402Z,14.27
2022-11-12T04:49:26.930Z,14.77
2022-11-12T04:52:14.903Z,13.60
2022-11-12T04:55:00.995Z,15.13
2022-11-12T04:57:46.511Z,15.50
2022-11-12T05:00:32.554Z,14.82
2022-11-12T05:03:18.455Z,15.82
2022-11-12T05:06:28.953Z,14.15
2022-11-12T05:09:14.596Z,15.10
2022-11-12T05:12:00.370Z,14.63
2022-11-12T05:14:45.970Z,14.93
2022-11-12T05:17:31.904Z,15.15
2022-11-12T05:20:18.346Z,15.35
2022-11-12T05:23:07.209Z,15.73
2022-11-12T05:25:53.146Z,14.75
2022-11-12T05:28:39.196Z,15.32
2022-11-12T05:31:24.778Z,14.13
2022-11-12T05:34:10.564Z,14.27
2022-11-12T05:36:57.011Z,14.68
2022-11-12T05:39:43.130Z,16.58
2022-11-12T05:42:28.814Z,17.77
2022-11-12T05:45:14.526Z,17.23
2022-11-12T05:47:59.975Z,14.45
2022-11-12T05:51:11.437Z,15.13
2022-11-12T05:53:54.538Z,14.82
2022-11-12T05:56:40.789Z,15.88
2022-11-12T05:59:29.535Z,19.73
2022-11-12T06:02:15.277Z,20.52
2022-11-12T06:05:00.756Z,25.50
2022-11-12T06:07:46.295Z,43.00
2022-11-12T06:10:33.081Z,46.45
2022-11-12T06:13:20.160Z,38.83
2022-11-12T06:16:05.785Z,29.95
2022-11-12T06:18:51.705Z,22.88
2022-11-12T06:21:36.935Z,35.92
2022-11-12T06:24:22.726Z,22.77
2022-11-12T06:27:08.491Z,17.83
2022-11-12T06:29:54.334Z,17.05
2022-11-12T06:32:40.230Z,19.33
2022-11-12T06:35:25.761Z,25.42
2022-11-12T06:40:57.332Z,17.80
2022-11-12T06:43:42.885Z,16.95
2022-11-12T06:46:31.798Z,17.00
2022-11-12T06:49:17.361Z,15.95
2022-11-12T06:52:03.582Z,23.60
2022-11-12T06:54:49.250Z,23.50
2022-11-12T06:57:35.510Z,23.35
2022-11-12T07:00:21.069Z,18.25
2022-11-12T07:03:10.030Z,15.77
2022-11-12T07:05:55.554Z,18.73
2022-11-12T07:08:41.927Z,19.65
2022-11-12T07:11:27.603Z,29.63
2022-11-12T07:14:13.382Z,25.35
2022-11-12T07:16:59.048Z,26.95
2022-11-12T07:19:44.797Z,29.10
2022-11-12T07:22:32.521Z,26.65
2022-11-12T07:25:18.040Z,30.23
2022-11-12T07:28:06.500Z,25.05
2022-11-12T07:30:57.138Z,25.00
2022-11-12T07:33:43.698Z,24.40
2022-11-12T07:36:29.771Z,19.83
2022-11-12T07:39:15.247Z,18.52
2022-11-12T07:42:01.030Z,21.08
2022-11-12T07:44:46.687Z,17.55
2022-11-12T07:47:32.316Z,19.80
2022-11-12T07:50:18.206Z,22.05
2022-11-12T07:53:04.135Z,25.27
2022-11-12T07:55:57.860Z,22.70
2022-11-12T07:58:44.131Z,21.35
2022-11-12T08:01:35.039Z,17.55
2022-11-12T08:04:21.327Z,31.25
2022-11-12T08:09:53.323Z,24.77
2022-11-12T08:12:41.965Z,21.90
2022-11-12T08:15:28.146Z,22.73
2022-11-12T08:18:14.232Z,19.60
2022-11-12T08:21:01.800Z,24.20
2022-11-12T08:23:48.310Z,22.80
2022-11-12T08:26:34.316Z,27.05
2022-11-12T08:29:20.274Z,29.55
2022-11-12T08:32:06.394Z,21.60
2022-11-12T08:34:51.898Z,26.58
2022-11-12T08:37:37.578Z,19.17
2022-11-12T08:40:23.354Z,20.13
2022-11-12T08:43:10.718Z,19.75
2022-11-12T08:45:59.023Z,20.25
2022-11-12T08:48:44.967Z,20.85
2022-11-12T08:51:30.688Z,23.45
2022-11-12T08:54:16.430Z,22.02
2022-11-12T08:57:03.884Z,22.00
2022-11-12T08:59:49.742Z,17.70
2022-11-12T09:02:35.352Z,17.10
2022-11-12T09:05:23.471Z,17.20
2022-11-12T09:08:11.644Z,16.33
2022-11-12T09:10:58.207Z,16.42
2022-11-12T09:13:43.766Z,18.70
2022-11-12T09:16:31.669Z,19.38
2022-11-12T09:19:17.364Z,18.55
2022-11-12T09:22:04.692Z,25.98
2022-11-12T09:24:50.371Z,22.77
2022-11-12T09:27:36.338Z,23.88
2022-11-12T09:30:23.038Z,44.05
2022-11-12T09:33:09.605Z,74.47
2022-11-12T09:35:56.660Z,71.45
2022-11-12T09:38:42.415Z,43.13
2022-11-12T09:41:37.590Z,36.75
2022-11-12T09:44:24.549Z,22.58
2022-11-12T09:47:21.041Z,21.42
2022-11-12T09:50:19.201Z,31.33
2022-11-12T09:53:44.429Z,26.33
2022-11-12T09:56:30.731Z,24.98
2022-11-12T09:59:17.001Z,22.58
2022-11-12T10:02:24.743Z,21.88
2022-11-12T10:05:33.110Z,20.17
2022-11-12T10:08:58.561Z,24.00
2022-11-12T10:12:20.972Z,18.08
2022-11-12T10:15:50.533Z,18.38
2022-11-12T10:19:07.088Z,18.63
2022-11-12T10:21:58.902Z,15.57
2022-11-12T10:24:45.141Z,16.48
2022-11-12T10:27:40.854Z,15.25
2022-11-12T10:33:15.117Z,16.60
2022-11-12T10:36:23.215Z,14.95
2022-11-12T10:39:09.397Z,16.60
2022-11-12T10:42:06.622Z,15.95
2022-11-12T10:44:52.413Z,16.52
2022-11-12T10:47:43.034Z,18.08
2022-11-12T10:50:35.065Z,18.33
2022-11-12T10:53:38.055Z,15.43
2022-11-12T10:56:31.975Z,15.80
2022-11-12T10:59:24.703Z,14.63
2022-11-12T11:02:18.954Z,16.42
2022-11-12T11:05:29.075Z,16.70
2022-11-12T11:08:16.101Z,16.55
2022-11-12T11:11:18.484Z,16.23
2022-11-12T11:14:22.644Z,15.05
2022-11-12T11:17:17.356Z,21.25
2022-11-12T11:20:22.790Z,17.27
2022-11-12T11:23:26.383Z,19.63
2022-11-12T11:26:34.087Z,17.02
2022-11-12T11:29:35.374Z,18.65
2022-11-12T11:32:50.273Z,17.85
2022-11-12T11:35:44.412Z,16.27
2022-11-12T11:38:58.918Z,20.23
2022-11-12T11:42:02.639Z,17.15
2022-11-12T11:45:20.823Z,23.55
2022-11-12T11:48:09.100Z,13.02
2022-11-12T11:51:02.723Z,14.73
2022-11-12T11:54:13.631Z,22.80
2022-11-12T11:57:02.387Z,17.85
2022-11-12T11:59:50.948Z,16.80
2022-11-12T12:02:39.614Z,14.82
2022-11-12T12:05:56.844Z,14.52
2022-11-12T12:08:58.149Z,13.32
2022-11-12T12:11:49.563Z,13.48
2022-11-12T12:14:52.499Z,12.98
2022-11-12T12:17:54.074Z,13.73
2022-11-12T12:21:23.061Z,12.18
2022-11-12T12:24:24.043Z,11.88
2022-11-12T12:27:21.943Z,12.88
2022-11-12T12:30:18.273Z,13.55
2022-11-12T12:33:27.576Z,13.73
2022-11-12T12:36:17.801Z,13.27
2022-11-12T12:39:15.110Z,12.13
2022-11-12T12:42:19.476Z,13.70
2022-11-12T12:45:38.524Z,14.52
2022-11-12T12:48:38.468Z,14.52
2022-11-12T12:51:34.575Z,15.63
2022-11-12T12:54:34.973Z,16.30
2022-11-12T12:57:37.264Z,16.75
2022-11-12T13:00:46.286Z,27.65
2022-11-12T13:03:46.644Z,24.17
2022-11-12T13:06:39.073Z,17.83
2022-11-12T13:09:26.537Z,15.73
2022-11-12T13:12:12.283Z,14.88
2022-11-12T13:15:13.848Z,13.30
2022-11-12T13:17:59.441Z,16.48
2022-11-12T13:21:08.022Z,19.00
2022-11-12T13:24:07.868Z,16.40
2022-11-12T13:26:56.750Z,14.93
2022-11-12T13:29:44.417Z,12.38
2022-11-12T13:32:36.414Z,12.95
2022-11-12T13:35:39.571Z,15.40
2022-11-12T13:38:26.331Z,19.60
2022-11-12T13:41:17.090Z,16.25
2022-11-12T13:44:07.944Z,17.83
2022-11-12T13:46:55.845Z,19.70
2022-11-12T13:49:43.811Z,19.80
2022-11-12T13:52:29.867Z,37.35
2022-11-12T13:55:21.137Z,85.40
2022-11-12T13:58:18.247Z,90.45
2022-11-12T14:01:06.683Z,47.63
2022-11-12T14:03:53.417Z,75.13
2022-11-12T14:06:53.249Z,80.28
2022-11-12T14:09:55.749Z,79.03
2022-11-12T14:12:51.197Z,54.72
2022-11-12T14:16:05.644Z,36.25
2022-11-12T14:19:09.963Z,32.85
2022-11-12T14:22:16.637Z,26.55
2022-11-12T14:25:03.544Z,29.35
2022-11-12T14:27:56.085Z,35.45
2022-11-12T14:30:45.231Z,37.70
2022-11-12T14:33:32.688Z,33.45
2022-11-12T14:36:20.173Z,38.00
2022-11-12T14:39:11.189Z,34.78
2022-11-12T14:41:59.216Z,35.03
2022-11-12T14:44:44.879Z,30.85
2022-11-12T14:47:30.811Z,30.23
2022-11-12T14:50:29.142Z,36.30
2022-11-12T14:53:30.921Z,58.90
2022-11-12T14:56:36.111Z,91.95
2022-11-12T14:59:24.766Z,60.63
2022-11-12T15:02:31.353Z,53.70
2022-11-12T15:05:21.381Z,58.55
2022-11-12T15:08:11.806Z,66.78
2022-11-12T15:11:22.259Z,62.25
2022-11-12T15:14:21.743Z,56.00
2022-11-12T15:17:30.818Z,42.33
2022-11-12T15:20:18.835Z,43.03
2022-11-12T15:23:05.459Z,44.30
2022-11-12T15:26:01.293Z,46.78
2022-11-12T15:29:10.215Z,61.25
2022-11-12T15:32:13.960Z,53.47
2022-11-12T15:34:59.854Z,45.28
2022-11-12T15:37:45.591Z,48.50
2022-11-12T15:40:45.772Z,57.97
2022-11-12T15:43:42.594Z,54.55
2022-11-12T15:46:28.339Z,41.67
2022-11-12T15:49:14.228Z,47.97
2022-11-12T15:52:00.218Z,46.58
2022-11-12T15:54:48.342Z,48.53
2022-11-12T15:57:41.258Z,40.00
2022-11-12T16:00:32.521Z,65.10
2022-11-12T16:03:21.091Z,51.65
2022-11-12T16:06:09.751Z,39.55
2022-11-12T16:08:55.725Z,34.75
2022-11-12T16:11:41.430Z,37.30
2022-11-12T16:14:27.807Z,61.17
2022-11-12T16:17:15.885Z,74.43
2022-11-12T16:20:03.961Z,77.82
2022-11-12T16:22:50.786Z,86.88
2022-11-12T16:25:38.418Z,64.18
2022-11-12T16:28:23.931Z,55.30
2022-11-12T16:31:10.255Z,43.13
2022-11-12T16:33:55.846Z,41.20
2022-11-12T16:36:41.502Z,41.42
2022-11-12T16:39:27.174Z,42.17
2022-11-12T16:42:12.764Z,42.22
2022-11-12T16:44:59.878Z,43.63
2022-11-12T16:47:47.949Z,42.33
2022-11-12T16:50:33.233Z,71.20
2022-11-12T16:53:18.806Z,48.88
2022-11-12T16:56:04.515Z,43.30
2022-11-12T16:58:50.465Z,43.78
2022-11-12T17:01:35.875Z,34.95
2022-11-12T17:04:26.744Z,37.75
2022-11-12T17:07:12.247Z,43.67
2022-11-12T17:09:58.345Z,36.10
2022-11-12T17:12:48.157Z,36.63
2022-11-12T17:15:35.971Z,45.45
2022-11-12T17:18:21.796Z,40.83
2022-11-12T17:21:16.852Z,53.58
2022-11-12T17:24:02.315Z,57.07
2022-11-12T17:26:48.585Z,55.10
2022-11-12T17:29:34.062Z,50.20
2022-11-12T17:32:19.816Z,63.25
2022-11-12T17:35:06.049Z,53.65
2022-11-12T17:37:51.592Z,55.63
2022-11-12T17:40:37.438Z,55.72
2022-11-12T17:43:23.144Z,58.53
2022-11-12T17:46:14.567Z,59.22
2022-11-12T17:49:00.185Z,57.35
2022-11-12T17:51:45.813Z,73.93
2022-11-12T17:54:31.457Z,68.72
2022-11-12T17:57:20.107Z,55.28
2022-11-12T18:00:06.499Z,51.03
2022-11-12T18:02:52.188Z,42.72
2022-11-12T18:05:38.175Z,54.50
2022-11-12T18:08:23.526Z,45.88
2022-11-12T18:11:10.992Z,54.63
2022-11-12T18:13:56.857Z,58.03
2022-11-12T18:16:42.707Z,86.32
2022-11-12T18:19:28.265Z,78.85
2022-11-12T18:22:15.570Z,73.13
2022-11-12T18:25:03.101Z,70.10
2022-11-12T18:27:49.703Z,76.60
2022-11-12T18:30:36.450Z,57.67
2022-11-12T18:33:22.019Z,50.08
2022-11-12T18:36:10.949Z,45.20
2022-11-12T18:38:56.641Z,39.60
2022-11-12T18:44:27.921Z,39.17
2022-11-12T18:47:13.456Z,47.72
2022-11-12T18:50:05.674Z,53.08
2022-11-12T18:52:54.071Z,41.55
2022-11-12T18:55:39.814Z,41.47
2022-11-12T18:58:29.411Z,42.30
2022-11-12T19:01:21.879Z,38.80
2022-11-12T19:04:10.630Z,43.60
2022-11-12T19:06:56.917Z,47.88
2022-11-12T19:09:42.764Z,51.03
2022-11-12T19:12:28.893Z,41.03
2022-11-12T19:15:16.309Z,49.97
2022-11-12T19:18:02.174Z,45.22
2022-11-12T19:20:50.648Z,42.80
2022-11-12T19:23:36.846Z,46.55
2022-11-12T19:26:23.918Z,52.42
2022-11-12T19:29:13.266Z,46.22
2022-11-12T19:31:59.062Z,41.53
2022-11-12T19:34:45.171Z,40.75
2022-11-12T19:37:34.459Z,44.28
2022-11-12T19:40:20.947Z,57.22
2022-11-12T19:45:59.460Z,68.25
2022-11-12T19:51:31.316Z,70.93
2022-11-12T19:54:17.167Z,71.72
2022-11-12T19:57:03.255Z,59.80
2022-11-12T19:59:48.913Z,94.38
2022-11-12T20:02:35.444Z,67.15
2022-11-12T20:05:21.183Z,75.70
2022-11-12T20:08:07.165Z,96.88
2022-11-12T20:10:52.557Z,88.38
2022-11-12T20:13:39.228Z,72.00
2022-11-12T20:16:25.935Z,69.63
2022-11-12T20:19:12.330Z,59.90
2022-11-12T20:21:58.086Z,58.70
2022-11-12T20:24:43.769Z,54.03
2022-11-12T20:27:30.001Z,54.58
2022-11-12T20:30:16.041Z,47.72
2022-11-12T20:33:01.613Z,48.58
2022-11-12T20:35:47.387Z,44.10
2022-11-12T20:38:36.536Z,53.90
2022-11-12T20:41:26.700Z,74.28
2022-11-12T20:44:13.528Z,56.15
2022-11-12T20:46:59.652Z,58.17
2022-11-12T20:49:45.188Z,74.05
2022-11-12T20:52:31.201Z,57.80
2022-11-12T20:55:17.043Z,50.92
2022-11-12T20:58:05.177Z,56.17
2022-11-12T21:00:50.831Z,56.30
2022-11-12T21:03:39.650Z,52.38
2022-11-12T21:06:27.664Z,47.55
2022-11-12T21:09:13.953Z,39.72
2022-11-12T21:11:59.458Z,44.90
2022-11-12T21:14:50.161Z,43.00
2022-11-12T21:17:36.159Z,48.15
2022-11-12T21:20:21.861Z,51.60
2022-11-12T21:23:07.831Z,47.78
2022-11-12T21:25:53.902Z,42.28
2022-11-12T21:28:43.093Z,45.90
2022-11-12T21:31:32.322Z,60.58
2022-11-12T21:34:17.713Z,98.15
2022-11-12T21:37:03.459Z,64.28
2022-11-12T21:39:50.571Z,48.72
2022-11-12T21:42:36.688Z,36.83
2022-11-12T21:45:22.336Z,44.10
2022-11-12T21:48:08.307Z,57.25
2022-11-12T21:50:53.941Z,65.80
2022-11-12T21:53:40.473Z,63.72
2022-11-12T21:56:26.791Z,52.25
2022-11-12T21:59:12.702Z,66.38
2022-11-12T22:01:58.404Z,53.03
2022-11-12T22:04:44.196Z,52.80
2022-11-12T22:07:30.238Z,53.92
2022-11-12T22:10:16.457Z,69.40
2022-11-12T22:16:29.878Z,68.05
2022-11-12T22:19:16.254Z,55.35
2022-11-12T22:22:02.181Z,54.65
2022-11-12T22:24:47.552Z,48.08
2022-11-12T22:27:33.887Z,64.80
2022-11-12T22:30:19.406Z,52.25
2022-11-12T22:33:05.016Z,59.17
2022-11-12T22:35:50.535Z,58.17
2022-11-12T22:38:38.715Z,50.08
2022-11-12T22:41:29.932Z,55.10
2022-11-12T22:44:15.862Z,51.38
2022-11-12T22:47:01.502Z,46.83
2022-11-12T22:49:48.529Z,45.85
2022-11-12T22:52:34.436Z,46.58
2022-11-12T22:55:20.476Z,43.92
2022-11-12T22:58:06.024Z,44.78
2022-11-12T23:00:52.059Z,52.85
2022-11-12T23:03:37.477Z,54.50
2022-11-12T23:06:24.377Z,46.50
2022-11-12T23:09:15.989Z,51.72
2022-11-12T23:12:02.489Z,62.40
2022-11-12T23:14:47.944Z,53.03
2022-11-12T23:17:33.948Z,46.38
2022-11-12T23:20:19.415Z,44.45
2022-11-12T23:23:05.310Z,42.08
2022-11-12T23:25:50.924Z,44.05
2022-11-12T23:28:37.103Z,40.97
2022-11-12T23:31:25.217Z,48.88
2022-11-12T23:34:12.917Z,44.58
2022-11-12T23:36:58.390Z,41.65
2022-11-12T23:39:43.835Z,40.95
2022-11-12T23:42:29.641Z,43.35
2022-11-12T23:45:15.565Z,41.60
2022-11-12T23:48:01.307Z,38.70
2022-11-12T23:50:48.760Z,45.78
2022-11-12T23:53:35.491Z,43.80
2022-11-12T23:56:21.509Z,44.35
2022-11-12T23:59:07.070Z,41.95
